createdAt,value
2023-08-06T00:01:59.785Z,9.40
2023-08-06T00:04:26.859Z,8.32
2023-08-06T00:06:53.903Z,11.02
2023-08-06T00:09:20.951Z,10.90
2023-08-06T00:11:48.064Z,13.25
2023-08-06T00:14:16.619Z,9.98
2023-08-06T00:16:46.789Z,9.05
2023-08-06T00:19:13.841Z,10.20
2023-08-06T00:21:40.882Z,10.27
2023-08-06T00:24:07.839Z,12.45
2023-08-06T00:26:34.829Z,9.35
2023-08-06T00:29:01.904Z,8.65
2023-08-06T00:31:30.245Z,11.73
2023-08-06T00:33:57.186Z,8.68
2023-08-06T00:36:27.161Z,9.75
2023-08-06T00:38:54.160Z,8.82
2023-08-06T00:41:21.156Z,9.00
2023-08-06T00:43:48.165Z,9.93
2023-08-06T00:46:15.523Z,10.63
2023-08-06T00:48:43.098Z,13.82
2023-08-06T00:51:12.290Z,16.20
2023-08-06T00:53:40.552Z,11.27
2023-08-06T00:56:08.849Z,11.43
2023-08-06T00:58:37.491Z,14.20
2023-08-06T01:01:04.590Z,13.20
2023-08-06T01:03:31.793Z,10.45
2023-08-06T01:05:58.978Z,13.18
2023-08-06T01:08:59.575Z,9.45
2023-08-06T01:12:07.641Z,9.88
2023-08-06T01:14:55.007Z,10.93
2023-08-06T01:17:22.599Z,11.25
2023-08-06T01:19:49.736Z,13.15
2023-08-06T01:22:16.794Z,11.35
2023-08-06T01:24:50.747Z,12.38
2023-08-06T01:27:36.505Z,14.93
2023-08-06T01:30:13.086Z,9.93
2023-08-06T01:32:47.409Z,10.70
2023-08-06T01:35:17.675Z,12.98
2023-08-06T01:37:45.424Z,14.73
2023-08-06T01:40:13.763Z,13.25
2023-08-06T01:42:41.006Z,14.73
2023-08-06T01:45:09.440Z,15.30
2023-08-06T01:47:36.942Z,11.75
2023-08-06T01:50:04.528Z,12.73
2023-08-06T01:52:31.523Z,12.07
2023-08-06T01:54:58.594Z,12.40
2023-08-06T01:57:25.650Z,13.98
2023-08-06T01:59:52.602Z,12.55
2023-08-06T02:02:19.538Z,12.00
2023-08-06T02:04:46.496Z,12.77
2023-08-06T02:07:13.451Z,15.73
2023-08-06T02:09:41.192Z,12.73
2023-08-06T02:12:09.966Z,15.25
2023-08-06T02:14:36.954Z,13.48
2023-08-06T02:17:03.959Z,13.35
2023-08-06T02:19:31.025Z,13.05
2023-08-06T02:21:58.027Z,15.82
2023-08-06T02:24:24.905Z,16.90
2023-08-06T02:26:52.735Z,15.27
2023-08-06T02:29:19.947Z,16.17
2023-08-06T02:31:46.911Z,11.98
2023-08-06T02:34:13.986Z,13.30
2023-08-06T02:36:40.991Z,15.35
2023-08-06T02:39:08.050Z,16.60
2023-08-06T02:41:34.966Z,11.13
2023-08-06T02:44:01.910Z,12.15
2023-08-06T02:46:28.958Z,12.18
2023-08-06T02:48:55.893Z,19.65
2023-08-06T02:51:22.812Z,11.13
2023-08-06T02:53:50.676Z,12.85
2023-08-06T02:56:17.645Z,14.13
2023-08-06T02:58:44.603Z,12.60
2023-08-06T03:01:11.598Z,21.05
2023-08-06T03:03:38.616Z,15.98
2023-08-06T03:06:05.679Z,12.05
2023-08-06T03:08:32.718Z,15.10
2023-08-06T03:10:59.638Z,13.35
2023-08-06T03:13:26.665Z,14.02
2023-08-06T03:15:59.040Z,13.48
2023-08-06T03:18:28.216Z,13.48
2023-08-06T03:20:55.793Z,14.85
2023-08-06T03:23:22.872Z,12.93
2023-08-06T03:25:49.777Z,11.57
2023-08-06T03:28:17.660Z,13.93
2023-08-06T03:30:44.646Z,14.48
2023-08-06T03:33:11.637Z,14.45
2023-08-06T03:35:38.587Z,17.75
2023-08-06T03:38:05.491Z,17.50
2023-08-06T03:40:32.540Z,13.70
2023-08-06T03:42:59.464Z,13.88
2023-08-06T03:45:26.424Z,16.85
2023-08-06T03:47:54.073Z,15.57
2023-08-06T03:50:21.017Z,15.45
2023-08-06T03:52:50.756Z,15.45
2023-08-06T03:55:17.715Z,15.35
2023-08-06T03:57:44.702Z,17.80
2023-08-06T04:00:12.129Z,15.48
2023-08-06T04:02:39.148Z,18.05
2023-08-06T04:05:06.485Z,14.55
2023-08-06T04:07:33.405Z,17.38
2023-08-06T22:37:55.838Z,5.55
2023-08-06T22:40:22.681Z,6.55
2023-08-06T22:42:49.571Z,8.25
2023-08-06T22:45:16.374Z,5.55
2023-08-06T22:47:43.873Z,10.27
2023-08-06T22:50:11.899Z,5.80
2023-08-06T22:52:40.094Z,9.48
2023-08-06T22:57:37.718Z,7.53
2023-08-06T23:00:05.673Z,9.50
2023-08-06T23:02:32.692Z,11.55
2023-08-06T23:04:59.699Z,5.97
2023-08-06T23:07:26.541Z,6.32
2023-08-06T23:09:53.442Z,5.55
2023-08-06T23:12:20.345Z,8.95
2023-08-06T23:14:47.186Z,13.13
2023-08-06T23:17:14.098Z,8.25
2023-08-06T23:19:41.018Z,9.05
2023-08-06T23:22:08.089Z,7.53
2023-08-06T23:24:34.944Z,9.63
2023-08-06T23:27:02.044Z,8.05
2023-08-06T23:29:28.951Z,5.97
2023-08-06T23:31:59.063Z,8.32
2023-08-06T23:34:26.070Z,10.18
2023-08-06T23:36:52.934Z,7.90
2023-08-06T23:39:19.880Z,6.15
2023-08-06T23:41:49.774Z,6.97
2023-08-06T23:44:16.623Z,8.57
2023-08-06T23:46:43.505Z,10.55
2023-08-06T23:49:10.429Z,5.80
2023-08-06T23:51:37.252Z,6.15
2023-08-06T23:54:04.104Z,9.73
2023-08-06T23:56:30.968Z,11.50
2023-08-06T23:58:57.802Z,6.68
